CYHU/YHU METAR and TAF weather

Enter ICAO airport designator
Station Type Date Time Source
CYHU METAR 2022/12/10 02:00 UTC NOAA

CYHU 100200Z AUTO 03013KT 9SM CLR M08/M13 A3058 RMK SLP358


Station Type Date Time Source
CYHU Decoded METAR 2022/12/10 02:00 UTC NOAA

Saint Hubert Airport , Canada (CYHU) 45-31N 073-25W
Dec 09, 2022 - 09:00 PM EST / 2022.12.10 0200 UTC
Wind: from the NNE (030 degrees) at 15 MPH (13 KT):0
Visibility: 9 mile(s):0
Sky conditions: clear
Temperature: 17 F (-8 C)
Windchill: 3 F (-16 C):1
Dew Point: 8 F (-13 C)
Relative Humidity: 67%
Pressure (altimeter): 30.58 in. Hg (1035 hPa)
ob: CYHU 100200Z AUTO 03013KT 9SM CLR M08/M13 A3058 RMK SLP358
cycle: 2

Station Type Date Time Source
CYHU TAF 2022/12/09 18:42 UTC NOAA

TAF CYHU 091740Z 0918/1018 02010KT P6SM FEW040
FM100000 03012KT P6SM SKC
BECMG 1012/1014 03012G22KT
RMK FCST BASED ON AUTO OBS. NXT FCST BY 100000Z

Example: see airport list